Vernon, TX

2:46 AM CDT on October 24, 2017 (GMT -0500)
Vernon

Weather History for KF05 - February, 2014

Change the Weather History Date:

Tuesday, February 18, 2014

  Actual Average (KLTS) Record (KLTS)
Temperature  
Mean Temperature 58 °F -  
Max Temperature 82 °F 54 °F 83 °F (2014)
Min Temperature 33 °F 33 °F 23 °F (2015)
Degree Days  
Heating Degree Days 8    
Growing Degree Days 8 (Base 50)    
Moisture  
Dew Point 30 °F    
Average Humidity 43    
Maximum Humidity 72    
Minimum Humidity 16    
Precipitation  
Precipitation 0.00 in - - ()
Sea Level Pressure  
Sea Level Pressure 29.93 in    
Wind  
Wind Speed 8 mph (South)    
Max Wind Speed 23 mph    
Max Gust Speed 29 mph    
Visibility 10 miles    
Events      
Averages and records for this station are not official NWS values.
T = Trace of Precipitation, MM = Missing Value Source: NWS Daily Summary

Daily Weather History Graph

Daily Weather History Graph

Search for Another Location

Airport or City:

Trip Planner

Search our weather history database for the weather conditions in past years. The results will help you decide how hot, cold, wet, or windy it might be!

Date:

Astronomy

Feb. 18, 2014 Rise Set
Actual Time 7:18 AM CST 6:23 PM CST
Civil Twilight 6:53 AM CST 6:49 PM CST
Nautical Twilight 6:24 AM CST 7:18 PM CST
Astronomical Twilight 5:54 AM CST 7:47 PM CST
Moon 10:06 PM CST (2/18) 9:03 AM CST (2/18)
Length of Visible Light 11h 55m
Length of Day
11h 04m
Waning Gibbous, 87% of the Moon is Illuminated
Feb 18
Waning Gibbous
Feb 22
Last Quarter
Mar 1
New
Mar 8
First Quarter
Mar 16
Full

Hourly Weather History & Observations

Time (CST) Temp. Windchill Dew Point Humidity Pressure Visibility Wind Dir Wind Speed Gust Speed Precip Events Conditions
12:15 AM 40.6 °F 36.7 °F 26.2 °F 57% 30.12 in 10.0 mi SW 5.8 mph - N/A   Clear
12:35 AM 38.5 °F 35.0 °F 26.1 °F 61% 30.11 in 10.0 mi SSW 4.6 mph - N/A   Clear
12:55 AM 38.3 °F 33.2 °F 26.2 °F 62% 30.09 in 10.0 mi SW 6.9 mph - N/A   Clear
1:15 AM 38.3 °F 33.9 °F 26.4 °F 62% 30.09 in 10.0 mi WSW 5.8 mph - N/A   Clear
1:35 AM 35.4 °F 29.7 °F 25.9 °F 68% 30.08 in 10.0 mi WSW 6.9 mph - N/A   Clear
1:55 AM 35.6 °F 31.7 °F 25.9 °F 68% 30.08 in 10.0 mi West 4.6 mph - N/A   Clear
2:15 AM 35.1 °F 29.3 °F 25.0 °F 67% 30.07 in 10.0 mi WSW 6.9 mph - N/A   Clear
2:35 AM 37.0 °F 31.6 °F 25.3 °F 63% 30.06 in 10.0 mi WSW 6.9 mph - N/A   Clear
2:55 AM 36.5 °F 30.3 °F 25.3 °F 64% 30.06 in 10.0 mi WSW 8.1 mph - N/A   Clear
3:15 AM 36.0 °F 30.3 °F 25.3 °F 65% 30.05 in 10.0 mi WSW 6.9 mph - N/A   Scattered Clouds
3:35 AM 35.1 °F - 25.0 °F 67% 30.04 in 10.0 mi Calm Calm - N/A   Scattered Clouds
3:55 AM 34.7 °F 28.1 °F 24.8 °F 67% 30.03 in 10.0 mi SW 8.1 mph - N/A   Scattered Clouds
4:15 AM 33.8 °F 27.7 °F 25.2 °F 71% 30.03 in 10.0 mi SW 6.9 mph - N/A   Clear
4:35 AM 35.8 °F 31.9 °F 25.5 °F 66% 30.01 in 10.0 mi SW 4.6 mph - N/A   Clear
4:55 AM 35.2 °F 29.5 °F 25.3 °F 67% 30.02 in 10.0 mi SW 6.9 mph - N/A   Clear
5:15 AM 33.6 °F 28.4 °F 25.2 °F 71% 30.00 in 10.0 mi SSW 5.8 mph - N/A   Scattered Clouds
5:35 AM 33.4 °F 28.1 °F 25.2 °F 72% 30.00 in 10.0 mi SSW 5.8 mph - N/A   Clear
5:55 AM 34.5 °F 29.4 °F 25.5 °F 70% 30.00 in 10.0 mi SW 5.8 mph - N/A   Clear
6:15 AM 33.4 °F 28.1 °F 25.2 °F 72% 30.00 in 10.0 mi SSW 5.8 mph - N/A   Clear
6:35 AM 33.6 °F - 25.0 °F 71% 30.00 in 10.0 mi Calm Calm - N/A   Clear
6:55 AM 34.3 °F 31.4 °F 25.2 °F 69% 30.00 in 10.0 mi SSW 3.5 mph - N/A   Clear
7:15 AM 35.8 °F 31.9 °F 25.2 °F 65% 30.00 in 10.0 mi SSW 4.6 mph - N/A   Clear
7:35 AM 36.3 °F - 25.7 °F 65% 29.99 in 10.0 mi Calm Calm - N/A   Clear
7:55 AM 34.2 °F 30.0 °F 25.9 °F 72% 30.01 in 10.0 mi ENE 4.6 mph - N/A   Clear
8:15 AM 35.8 °F - 27.3 °F 71% 30.01 in 10.0 mi Calm Calm - N/A   Clear
8:35 AM 40.5 °F 38.4 °F 29.5 °F 65% 30.00 in 10.0 mi SE 3.5 mph - N/A   Clear
8:55 AM 43.7 °F 42.1 °F 30.9 °F 61% 30.00 in 10.0 mi SSE 3.5 mph - N/A   Clear
9:15 AM 46.6 °F - 30.4 °F 53% 30.00 in 10.0 mi SSE 4.6 mph - N/A   Clear
9:35 AM 48.9 °F - 29.5 °F 47% 29.99 in 10.0 mi South 5.8 mph - N/A   Clear
9:55 AM 50.9 °F - 30.0 °F 45% 29.99 in 10.0 mi South 9.2 mph - N/A   Clear
10:15 AM 54.7 °F - 29.3 °F 38% 29.98 in 10.0 mi SSW 12.7 mph - N/A   Clear
10:35 AM 57.6 °F - 28.0 °F 32% 29.97 in 10.0 mi SSW 12.7 mph - N/A   Clear
10:55 AM 59.9 °F - 27.9 °F 30% 29.95 in 10.0 mi SSW 16.1 mph - N/A   Clear
11:35 AM 63.1 °F - 27.1 °F 26% 29.96 in 10.0 mi SSW 15.0 mph 19.6 mph N/A   Clear
11:55 AM 65.1 °F - 27.3 °F 24% 29.94 in 10.0 mi SSW 18.4 mph - N/A   Clear
12:15 PM 67.3 °F - 28.0 °F 23% 29.92 in 10.0 mi SSW 18.4 mph 21.9 mph N/A   Clear
12:35 PM 68.2 °F - 29.7 °F 24% 29.90 in 10.0 mi SSW 19.6 mph 25.3 mph N/A   Clear
12:55 PM 70.7 °F - 30.7 °F 23% 29.88 in 10.0 mi SW 23.0 mph 28.8 mph N/A   Clear
1:15 PM 72.5 °F - 31.3 °F 22% 29.86 in 10.0 mi SW 19.6 mph 28.8 mph N/A   Clear
1:35 PM 73.8 °F - 31.8 °F 21% 29.85 in 10.0 mi SW 17.3 mph 25.3 mph N/A   Clear
1:55 PM 75.6 °F - 31.8 °F 20% 29.84 in 10.0 mi SSW 17.3 mph - N/A   Clear
2:15 PM 76.6 °F - 31.8 °F 19% 29.83 in 10.0 mi SSW 17.3 mph - N/A   Clear
2:35 PM 77.9 °F - 32.0 °F 19% 29.82 in 10.0 mi SW 16.1 mph - N/A   Clear
2:55 PM 78.6 °F - 31.8 °F 18% 29.82 in 10.0 mi SW 12.7 mph 17.3 mph N/A   Clear
3:15 PM 80.1 °F - 32.0 °F 17% 29.80 in 10.0 mi SSW 15.0 mph 18.4 mph N/A   Clear
3:35 PM 81.1 °F - 32.0 °F 17% 29.80 in 10.0 mi SW 13.8 mph 18.4 mph N/A   Clear
3:55 PM 81.7 °F - 32.0 °F 17% 29.79 in 10.0 mi SSW 13.8 mph 19.6 mph N/A   Clear
4:15 PM 82.0 °F - 31.8 °F 16% 29.79 in 10.0 mi SW 13.8 mph - N/A   Clear
4:35 PM 82.2 °F - 31.8 °F 16% 29.79 in 10.0 mi SSW 10.4 mph - N/A   Clear
4:55 PM 82.4 °F - 32.0 °F 16% 29.78 in 10.0 mi South 13.8 mph - N/A   Clear
5:15 PM 81.7 °F - 32.0 °F 17% 29.79 in 10.0 mi South 9.2 mph - N/A   Clear
5:35 PM 80.8 °F - 32.0 °F 17% 29.79 in 10.0 mi South 4.6 mph - N/A   Clear
5:55 PM 78.4 °F - 32.2 °F 19% 29.80 in 10.0 mi SE 3.5 mph - N/A   Clear
6:15 PM 75.2 °F - 33.8 °F 22% 29.80 in 10.0 mi ESE 5.8 mph - N/A   Clear
6:35 PM 72.9 °F - 33.8 °F 24% 29.80 in 10.0 mi ESE 5.8 mph - N/A   Clear
6:55 PM 70.2 °F - 33.3 °F 26% 29.81 in 10.0 mi East 5.8 mph - N/A   Clear
7:15 PM 67.1 °F - 33.6 °F 29% 29.83 in 10.0 mi ENE 6.9 mph - N/A   Clear
7:35 PM 64.8 °F - 34.0 °F 32% 29.84 in 10.0 mi ENE 5.8 mph - N/A   Clear
7:55 PM 63.9 °F - 33.8 °F 33% 29.84 in 10.0 mi East 9.2 mph - N/A   Clear
8:15 PM 63.9 °F - 33.6 °F 32% 29.84 in 10.0 mi ENE 5.8 mph - N/A   Clear
8:35 PM 61.2 °F - 34.0 °F 36% 29.84 in 10.0 mi East 8.1 mph - N/A   Clear
8:55 PM 63.1 °F - 34.0 °F 34% 29.84 in 10.0 mi ESE 8.1 mph - N/A   Clear
9:35 PM 63.5 °F - 33.3 °F 32% 29.86 in 10.0 mi East 5.8 mph - N/A   Clear
9:55 PM 61.0 °F - 33.3 °F 35% 29.87 in 10.0 mi ESE 5.8 mph - N/A   Clear
10:15 PM 62.1 °F - 32.9 °F 34% 29.87 in 10.0 mi ESE 4.6 mph - N/A   Clear
10:35 PM 60.3 °F - 33.1 °F 36% 29.87 in 10.0 mi ENE 5.8 mph - N/A   Clear
10:55 PM 54.3 °F - 34.2 °F 47% 29.88 in 10.0 mi NE 5.8 mph - N/A   Clear
11:15 PM 53.4 °F - 34.7 °F 49% 29.87 in 10.0 mi NE 5.8 mph - N/A   Clear
11:35 PM 52.7 °F - 34.9 °F 51% 29.88 in 10.0 mi North 10.4 mph - N/A   Clear
11:55 PM 54.1 °F - 36.1 °F 51% 29.88 in 10.0 mi NNE 8.1 mph - N/A   Clear